sensor_id;sensor_type;location;lat;lon;timestamp;pressure;altitude;pressure_sealevel;temperature;humidity
13836;BME280;6988;52.614;13.500;2023-08-12T00:01:31;53987.13;;;-143.77;73.98
13836;BME280;6988;52.614;13.500;2023-08-12T00:06:23;53983.00;;;-143.77;74.11
13836;BME280;6988;52.614;13.500;2023-08-12T00:11:15;53958.41;;;-143.77;73.67
13836;BME280;6988;52.614;13.500;2023-08-12T00:16:06;54015.84;;;-143.77;73.81
13836;BME280;6988;52.614;13.500;2023-08-12T00:20:59;53933.78;;;-143.77;74.44
13836;BME280;6988;52.614;13.500;2023-08-12T00:25:51;53978.91;;;-143.77;74.16
13836;BME280;6988;52.614;13.500;2023-08-12T00:30:43;53956.34;;;-143.77;73.91
13836;BME280;6988;52.614;13.500;2023-08-12T00:35:34;54003.53;;;-143.77;74.39
13836;BME280;6988;52.614;13.500;2023-08-12T00:40:27;53985.06;;;-143.77;74.41
13836;BME280;6988;52.614;13.500;2023-08-12T00:45:19;53993.28;;;-143.77;74.36
13836;BME280;6988;52.614;13.500;2023-08-12T00:50:13;53997.38;;;-143.77;74.29
13836;BME280;6988;52.614;13.500;2023-08-12T00:55:06;54005.59;;;-143.77;74.59
13836;BME280;6988;52.614;13.500;2023-08-12T01:00:00;54017.91;;;-143.77;74.84
13836;BME280;6988;52.614;13.500;2023-08-12T01:04:54;54009.69;;;-143.77;74.94
13836;BME280;6988;52.614;13.500;2023-08-12T01:09:46;53985.06;;;-143.77;75.15
13836;BME280;6988;52.614;13.500;2023-08-12T01:14:46;54003.53;;;-143.77;75.38
13836;BME280;6988;52.614;13.500;2023-08-12T01:19:43;53966.59;;;-143.77;75.09
13836;BME280;6988;52.614;13.500;2023-08-12T01:24:39;54011.75;;;-143.77;75.40
13836;BME280;6988;52.614;13.500;2023-08-12T01:29:32;54007.63;;;-143.77;75.20
13836;BME280;6988;52.614;13.500;2023-08-12T01:34:36;54058.94;;;-143.77;75.29
13836;BME280;6988;52.614;13.500;2023-08-12T01:39:36;53983.00;;;-143.77;75.23
13836;BME280;6988;52.614;13.500;2023-08-12T01:44:28;54003.53;;;-143.77;75.57
13836;BME280;6988;52.614;13.500;2023-08-12T01:49:20;54015.84;;;-143.77;75.53
13836;BME280;6988;52.614;13.500;2023-08-12T01:54:13;54015.84;;;-143.77;75.88
13836;BME280;6988;52.614;13.500;2023-08-12T01:59:06;54028.16;;;-143.77;76.15
13836;BME280;6988;52.614;13.500;2023-08-12T02:03:58;54091.75;;;-143.77;76.15
13836;BME280;6988;52.614;13.500;2023-08-12T02:08:50;54048.66;;;-143.77;76.23
13836;BME280;6988;52.614;13.500;2023-08-12T02:13:42;54007.63;;;-143.77;76.43
13836;BME280;6988;52.614;13.500;2023-08-12T02:18:35;54015.84;;;-143.77;76.49
13836;BME280;6988;52.614;13.500;2023-08-12T02:23:27;54011.75;;;-143.77;76.65
13836;BME280;6988;52.614;13.500;2023-08-12T02:28:18;54007.63;;;-143.77;76.52
13836;BME280;6988;52.614;13.500;2023-08-12T02:33:10;54032.25;;;-143.77;76.23
13836;BME280;6988;52.614;13.500;2023-08-12T02:38:03;54024.06;;;-143.77;76.14
13836;BME280;6988;52.614;13.500;2023-08-12T02:42:55;54013.78;;;-143.77;76.21
13836;BME280;6988;52.614;13.500;2023-08-12T02:47:47;54017.91;;;-143.77;76.34
13836;BME280;6988;52.614;13.500;2023-08-12T02:52:39;54022.00;;;-143.77;76.01
13836;BME280;6988;52.614;13.500;2023-08-12T02:57:32;53995.31;;;-143.77;76.28
13836;BME280;6988;52.614;13.500;2023-08-12T03:02:24;54019.94;;;-143.77;76.52
13836;BME280;6988;52.614;13.500;2023-08-12T03:07:16;54038.41;;;-143.77;76.57
13836;BME280;6988;52.614;13.500;2023-08-12T03:12:08;54044.56;;;-143.77;76.25
13836;BME280;6988;52.614;13.500;2023-08-12T03:17:01;54019.94;;;-143.77;75.97
13836;BME280;6988;52.614;13.500;2023-08-12T03:21:54;54007.63;;;-143.77;76.07
13836;BME280;6988;52.614;13.500;2023-08-12T03:26:47;54054.81;;;-143.77;75.96
13836;BME280;6988;52.614;13.500;2023-08-12T03:31:39;54034.31;;;-143.77;76.44
13836;BME280;6988;52.614;13.500;2023-08-12T03:36:33;54017.91;;;-143.77;76.37
13836;BME280;6988;52.614;13.500;2023-08-12T03:41:26;54019.94;;;-143.77;76.27
13836;BME280;6988;52.614;13.500;2023-08-12T03:46:20;54036.38;;;-143.77;76.32
13836;BME280;6988;52.614;13.500;2023-08-12T03:51:12;54032.25;;;-143.77;76.52
13836;BME280;6988;52.614;13.500;2023-08-12T03:56:05;54065.09;;;-143.77;76.59
13836;BME280;6988;52.614;13.500;2023-08-12T04:00:57;54028.16;;;-143.77;76.74
13836;BME280;6988;52.614;13.500;2023-08-12T04:05:50;54040.47;;;-143.77;76.70
13836;BME280;6988;52.614;13.500;2023-08-12T04:10:45;54075.34;;;-143.77;77.09
13836;BME280;6988;52.614;13.500;2023-08-12T04:15:39;54058.94;;;-143.77;76.85
13836;BME280;6988;52.614;13.500;2023-08-12T04:20:31;54030.22;;;-143.77;77.09
13836;BME280;6988;52.614;13.500;2023-08-12T04:25:23;54040.47;;;-143.77;77.29
13836;BME280;6988;52.614;13.500;2023-08-12T04:30:19;54022.00;;;-143.77;76.82
13836;BME280;6988;52.614;13.500;2023-08-12T04:35:13;54040.47;;;-143.77;76.99
13836;BME280;6988;52.614;13.500;2023-08-12T04:40:08;54028.16;;;-143.77;77.01
13836;BME280;6988;52.614;13.500;2023-08-12T04:45:02;54044.56;;;-143.77;76.66
13836;BME280;6988;52.614;13.500;2023-08-12T04:49:56;54015.84;;;-143.77;75.90
13836;BME280;6988;52.614;13.500;2023-08-12T04:54:53;54069.19;;;-143.77;75.36
13836;BME280;6988;52.614;13.500;2023-08-12T04:59:46;54005.59;;;-143.77;75.48
13836;BME280;6988;52.614;13.500;2023-08-12T05:04:39;53991.22;;;-143.77;75.22
13836;BME280;6988;52.614;13.500;2023-08-12T05:09:31;53976.88;;;-143.77;74.18
13836;BME280;6988;52.614;13.500;2023-08-12T05:14:24;53954.28;;;-143.77;72.48
13836;BME280;6988;52.614;13.500;2023-08-12T05:19:16;53921.47;;;-143.77;71.56
13836;BME280;6988;52.614;13.500;2023-08-12T05:24:08;53950.19;;;-143.77;71.09
13836;BME280;6988;52.614;13.500;2023-08-12T05:29:02;53939.94;;;-143.77;70.80
13836;BME280;6988;52.614;13.500;2023-08-12T05:33:55;53907.09;;;-143.77;70.67
13836;BME280;6988;52.614;13.500;2023-08-12T05:38:46;53880.44;;;-143.77;69.69
13836;BME280;6988;52.614;13.500;2023-08-12T05:43:39;53870.19;;;-143.77;68.55
13836;BME280;6988;52.614;13.500;2023-08-12T05:48:30;53868.13;;;-143.77;67.65
13836;BME280;6988;52.614;13.500;2023-08-12T05:53:24;53872.22;;;-143.77;68.52
13836;BME280;6988;52.614;13.500;2023-08-12T05:58:15;53874.28;;;-143.77;67.95
13836;BME280;6988;52.614;13.500;2023-08-12T06:03:07;53839.41;;;-143.77;68.03
13836;BME280;6988;52.614;13.500;2023-08-12T06:07:59;53841.44;;;-143.77;68.54
13836;BME280;6988;52.614;13.500;2023-08-12T06:12:52;53835.31;;;-143.77;68.40
13836;BME280;6988;52.614;13.500;2023-08-12T06:17:44;53833.25;;;-143.77;68.14
13836;BME280;6988;52.614;13.500;2023-08-12T06:22:36;53825.03;;;-143.77;67.65
13836;BME280;6988;52.614;13.500;2023-08-12T06:27:27;53761.44;;;-143.77;67.16
13836;BME280;6988;52.614;13.500;2023-08-12T06:32:20;53859.91;;;-143.77;66.05
13836;BME280;6988;52.614;13.500;2023-08-12T06:37:12;53749.13;;;-143.77;64.96
13836;BME280;6988;52.614;13.500;2023-08-12T06:42:04;53759.41;;;-143.77;63.58
13836;BME280;6988;52.614;13.500;2023-08-12T06:46:57;53720.41;;;-143.77;63.18
13836;BME280;6988;52.614;13.500;2023-08-12T06:51:50;53704.00;;;-143.77;62.56
13836;BME280;6988;52.614;13.500;2023-08-12T06:56:42;53712.22;;;-143.77;61.08
13836;BME280;6988;52.614;13.500;2023-08-12T07:01:34;53636.31;;;-143.77;60.27
13836;BME280;6988;52.614;13.500;2023-08-12T07:06:26;53632.19;;;-143.77;59.47
13836;BME280;6988;52.614;13.500;2023-08-12T07:11:19;53634.25;;;-143.77;58.58
13836;BME280;6988;52.614;13.500;2023-08-12T07:16:11;53621.94;;;-143.77;58.10
13836;BME280;6988;52.614;13.500;2023-08-12T07:21:03;53515.25;;;-143.77;59.17
13836;BME280;6988;52.614;13.500;2023-08-12T07:25:54;53576.81;;;-143.77;57.96
13836;BME280;6988;52.614;13.500;2023-08-12T07:30:48;53621.94;;;-143.77;56.58
13836;BME280;6988;52.614;13.500;2023-08-12T07:35:39;53578.84;;;-143.77;56.57
13836;BME280;6988;52.614;13.500;2023-08-12T07:40:32;53548.09;;;-143.77;56.67
13836;BME280;6988;52.614;13.500;2023-08-12T07:45:24;53515.25;;;-143.77;55.90
13836;BME280;6988;52.614;13.500;2023-08-12T07:50:18;53513.22;;;-143.77;55.92
13836;BME280;6988;52.614;13.500;2023-08-12T07:55:09;53498.84;;;-143.77;55.97
13836;BME280;6988;52.614;13.500;2023-08-12T08:00:03;53539.88;;;-143.77;56.07
13836;BME280;6988;52.614;13.500;2023-08-12T08:04:55;53509.09;;;-143.77;54.74
13836;BME280;6988;52.614;13.500;2023-08-12T08:09:48;53535.78;;;-143.77;55.93
13836;BME280;6988;52.614;13.500;2023-08-12T08:14:40;53535.78;;;-143.77;55.96
13836;BME280;6988;52.614;13.500;2023-08-12T08:19:32;53572.72;;;-143.77;56.28
13836;BME280;6988;52.614;13.500;2023-08-12T08:24:23;53566.56;;;-143.77;55.94
13836;BME280;6988;52.614;13.500;2023-08-12T08:29:16;53593.22;;;-143.77;56.17
13836;BME280;6988;52.614;13.500;2023-08-12T08:34:08;53580.91;;;-143.77;57.14
13836;BME280;6988;52.614;13.500;2023-08-12T08:39:01;53601.44;;;-143.77;57.36
13836;BME280;6988;52.614;13.500;2023-08-12T08:43:55;53609.63;;;-143.77;57.96
13836;BME280;6988;52.614;13.500;2023-08-12T08:48:52;53636.31;;;-143.77;58.44
13836;BME280;6988;52.614;13.500;2023-08-12T08:53:45;53644.50;;;-143.77;59.40
13836;BME280;6988;52.614;13.500;2023-08-12T08:58:38;53632.19;;;-143.77;60.11
13836;BME280;6988;52.614;13.500;2023-08-12T09:03:30;53638.34;;;-143.77;59.92
13836;BME280;6988;52.614;13.500;2023-08-12T09:08:25;53621.94;;;-143.77;60.48
13836;BME280;6988;52.614;13.500;2023-08-12T09:13:19;53650.66;;;-143.77;60.75
13836;BME280;6988;52.614;13.500;2023-08-12T09:18:11;53617.84;;;-143.77;60.63
13836;BME280;6988;52.614;13.500;2023-08-12T09:23:03;53609.63;;;-143.77;60.39
13836;BME280;6988;52.614;13.500;2023-08-12T09:27:59;53607.59;;;-143.77;60.95
13836;BME280;6988;52.614;13.500;2023-08-12T09:33:01;53585.00;;;-143.77;59.25
13836;BME280;6988;52.614;13.500;2023-08-12T09:37:54;53572.72;;;-143.77;58.93
13836;BME280;6988;52.614;13.500;2023-08-12T09:42:47;53539.88;;;-143.77;57.97
13836;BME280;6988;52.614;13.500;2023-08-12T09:47:42;53507.06;;;-143.77;57.62
13836;BME280;6988;52.614;13.500;2023-08-12T09:52:34;53535.78;;;-143.77;56.46
13836;BME280;6988;52.614;13.500;2023-08-12T09:57:30;53541.94;;;-143.77;57.22
13836;BME280;6988;52.614;13.500;2023-08-12T10:02:26;53548.09;;;-143.77;57.67
13836;BME280;6988;52.614;13.500;2023-08-12T10:07:20;53507.06;;;-143.77;57.19
13836;BME280;6988;52.614;13.500;2023-08-12T10:12:15;53601.44;;;-143.77;57.91
13836;BME280;6988;52.614;13.500;2023-08-12T10:17:08;53511.16;;;-143.77;55.79
13836;BME280;6988;52.614;13.500;2023-08-12T10:22:02;53519.38;;;-143.77;56.87
13836;BME280;6988;52.614;13.500;2023-08-12T10:26:56;53548.09;;;-143.77;56.57
13836;BME280;6988;52.614;13.500;2023-08-12T10:31:48;53523.47;;;-143.77;55.68
13836;BME280;6988;52.614;13.500;2023-08-12T10:36:41;53523.47;;;-143.77;56.79
13836;BME280;6988;52.614;13.500;2023-08-12T10:41:35;53488.59;;;-143.77;56.09
13836;BME280;6988;52.614;13.500;2023-08-12T10:46:34;53492.69;;;-143.77;56.96
13836;BME280;6988;52.614;13.500;2023-08-12T10:51:46;53490.66;;;-143.77;57.52
13836;BME280;6988;52.614;13.500;2023-08-12T10:57:06;53480.38;;;-143.77;57.23
13836;BME280;6988;52.614;13.500;2023-08-12T11:02:07;53470.13;;;-143.77;57.36
13836;BME280;6988;52.614;13.500;2023-08-12T11:06:59;53498.84;;;-143.77;56.31
13836;BME280;6988;52.614;13.500;2023-08-12T11:11:58;53441.41;;;-143.77;56.29
13836;BME280;6988;52.614;13.500;2023-08-12T11:16:53;53466.03;;;-143.77;55.98
13836;BME280;6988;52.614;13.500;2023-08-12T11:21:47;53496.81;;;-143.77;56.44
13836;BME280;6988;52.614;13.500;2023-08-12T11:26:41;53457.81;;;-143.77;56.96
13836;BME280;6988;52.614;13.500;2023-08-12T11:31:34;53441.41;;;-143.77;57.01
13836;BME280;6988;52.614;13.500;2023-08-12T11:36:28;53478.34;;;-143.77;57.00
13836;BME280;6988;52.614;13.500;2023-08-12T11:41:23;53425.00;;;-143.77;55.97
13836;BME280;6988;52.614;13.500;2023-08-12T11:46:15;53425.00;;;-143.77;57.01
13836;BME280;6988;52.614;13.500;2023-08-12T11:51:07;53457.81;;;-143.77;57.12
13836;BME280;6988;52.614;13.500;2023-08-12T11:55:59;53441.41;;;-143.77;57.37
13836;BME280;6988;52.614;13.500;2023-08-12T12:00:54;53453.72;;;-143.77;57.95
13836;BME280;6988;52.614;13.500;2023-08-12T12:05:46;53433.22;;;-143.77;56.98
13836;BME280;6988;52.614;13.500;2023-08-12T12:10:39;53457.81;;;-143.77;56.29
13836;BME280;6988;52.614;13.500;2023-08-12T12:15:38;53435.25;;;-143.77;54.71
13836;BME280;6988;52.614;13.500;2023-08-12T12:20:31;53433.22;;;-143.77;55.29
13836;BME280;6988;52.614;13.500;2023-08-12T12:25:23;53433.22;;;-143.77;54.62
13836;BME280;6988;52.614;13.500;2023-08-12T12:30:16;53406.53;;;-143.77;55.97
13836;BME280;6988;52.614;13.500;2023-08-12T12:35:09;53412.69;;;-143.77;55.39
13836;BME280;6988;52.614;13.500;2023-08-12T12:40:03;53474.25;;;-143.77;56.09
13836;BME280;6988;52.614;13.500;2023-08-12T12:44:56;53505.00;;;-143.77;56.29
13836;BME280;6988;52.614;13.500;2023-08-12T12:49:47;53496.81;;;-143.77;57.23
13836;BME280;6988;52.614;13.500;2023-08-12T12:54:39;53523.47;;;-143.77;57.58
13836;BME280;6988;52.614;13.500;2023-08-12T12:59:32;53453.72;;;-143.77;57.71
13836;BME280;6988;52.614;13.500;2023-08-12T13:04:24;53535.78;;;-143.77;57.14
13836;BME280;6988;52.614;13.500;2023-08-12T13:09:16;53441.41;;;-143.77;58.02
13836;BME280;6988;52.614;13.500;2023-08-12T13:14:08;53431.16;;;-143.77;57.72
13836;BME280;6988;52.614;13.500;2023-08-12T13:19:01;53429.09;;;-143.77;57.16
13836;BME280;6988;52.614;13.500;2023-08-12T13:23:52;53406.53;;;-143.77;57.43
13836;BME280;6988;52.614;13.500;2023-08-12T13:28:46;53383.97;;;-143.77;56.59
13836;BME280;6988;52.614;13.500;2023-08-12T13:33:38;53398.34;;;-143.77;56.45
13836;BME280;6988;52.614;13.500;2023-08-12T13:38:31;53373.72;;;-143.77;54.78
13836;BME280;6988;52.614;13.500;2023-08-12T13:43:23;53416.78;;;-143.77;55.32
13836;BME280;6988;52.614;13.500;2023-08-12T13:48:14;53394.22;;;-143.77;55.16
13836;BME280;6988;52.614;13.500;2023-08-12T13:53:06;53365.50;;;-143.77;55.69
13836;BME280;6988;52.614;13.500;2023-08-12T13:57:59;53392.19;;;-143.77;53.39
13836;BME280;6988;52.614;13.500;2023-08-12T14:02:51;53351.16;;;-143.77;53.18
13836;BME280;6988;52.614;13.500;2023-08-12T14:07:43;53379.88;;;-143.77;53.17
13836;BME280;6988;52.614;13.500;2023-08-12T14:12:35;53379.88;;;-143.77;53.16
13836;BME280;6988;52.614;13.500;2023-08-12T14:17:28;53383.97;;;-143.77;52.94
13836;BME280;6988;52.614;13.500;2023-08-12T14:22:20;53427.06;;;-143.77;53.11
13836;BME280;6988;52.614;13.500;2023-08-12T14:27:12;53371.66;;;-143.77;52.45
13836;BME280;6988;52.614;13.500;2023-08-12T14:32:05;53328.59;;;-143.77;49.93
13836;BME280;6988;52.614;13.500;2023-08-12T14:36:58;53279.34;;;-143.77;47.65
13836;BME280;6988;52.614;13.500;2023-08-12T14:41:51;53219.88;;;-143.77;47.06
13836;BME280;6988;52.614;13.500;2023-08-12T14:46:42;53267.06;;;-143.77;46.54
13836;BME280;6988;52.614;13.500;2023-08-12T14:51:34;53279.34;;;-143.77;46.75
13836;BME280;6988;52.614;13.500;2023-08-12T14:56:27;53260.91;;;-143.77;46.91
13836;BME280;6988;52.614;13.500;2023-08-12T15:01:20;53285.50;;;-143.77;47.50
13836;BME280;6988;52.614;13.500;2023-08-12T15:06:12;53287.56;;;-143.77;46.78
13836;BME280;6988;52.614;13.500;2023-08-12T15:11:04;53223.97;;;-143.77;46.97
13836;BME280;6988;52.614;13.500;2023-08-12T15:15:57;53260.91;;;-143.77;46.90
13836;BME280;6988;52.614;13.500;2023-08-12T15:20:49;53281.41;;;-143.77;46.99
13836;BME280;6988;52.614;13.500;2023-08-12T15:25:43;53285.50;;;-143.77;48.92
13836;BME280;6988;52.614;13.500;2023-08-12T15:30:35;53326.53;;;-143.77;47.67
13836;BME280;6988;52.614;13.500;2023-08-12T15:35:28;53314.22;;;-143.77;48.58
13836;BME280;6988;52.614;13.500;2023-08-12T15:40:20;53303.97;;;-143.77;49.12
13836;BME280;6988;52.614;13.500;2023-08-12T15:45:12;53355.25;;;-143.77;50.18
13836;BME280;6988;52.614;13.500;2023-08-12T15:50:06;53328.59;;;-143.77;50.12
13836;BME280;6988;52.614;13.500;2023-08-12T15:55:00;53310.13;;;-143.77;49.95
13836;BME280;6988;52.614;13.500;2023-08-12T15:59:52;53322.44;;;-143.77;50.61
13836;BME280;6988;52.614;13.500;2023-08-12T16:04:44;53318.34;;;-143.77;50.47
13836;BME280;6988;52.614;13.500;2023-08-12T16:09:36;53318.34;;;-143.77;50.78
13836;BME280;6988;52.614;13.500;2023-08-12T16:14:29;53320.38;;;-143.77;50.83
13836;BME280;6988;52.614;13.500;2023-08-12T16:19:20;53355.25;;;-143.77;50.48
13836;BME280;6988;52.614;13.500;2023-08-12T16:24:12;53355.25;;;-143.77;51.82
13836;BME280;6988;52.614;13.500;2023-08-12T16:29:04;53373.72;;;-143.77;51.94
13836;BME280;6988;52.614;13.500;2023-08-12T16:33:57;53379.88;;;-143.77;51.71
13836;BME280;6988;52.614;13.500;2023-08-12T16:38:49;53351.16;;;-143.77;51.74
13836;BME280;6988;52.614;13.500;2023-08-12T16:43:40;53375.78;;;-143.77;52.67
13836;BME280;6988;52.614;13.500;2023-08-12T16:48:32;53400.38;;;-143.77;54.03
13836;BME280;6988;52.614;13.500;2023-08-12T16:53:25;53398.34;;;-143.77;55.32
13836;BME280;6988;52.614;13.500;2023-08-12T16:58:17;53388.06;;;-143.77;56.31
13836;BME280;6988;52.614;13.500;2023-08-12T17:03:08;53437.31;;;-143.77;57.51
13836;BME280;6988;52.614;13.500;2023-08-12T17:08:00;53425.00;;;-143.77;57.94
13836;BME280;6988;52.614;13.500;2023-08-12T17:12:54;53420.91;;;-143.77;58.28
13836;BME280;6988;52.614;13.500;2023-08-12T17:17:46;53439.38;;;-143.77;58.35
13836;BME280;6988;52.614;13.500;2023-08-12T17:22:38;53468.09;;;-143.77;57.71
13836;BME280;6988;52.614;13.500;2023-08-12T17:27:30;53455.78;;;-143.77;58.34
13836;BME280;6988;52.614;13.500;2023-08-12T17:32:23;53482.44;;;-143.77;57.73
13836;BME280;6988;52.614;13.500;2023-08-12T17:37:15;53466.03;;;-143.77;57.94
13836;BME280;6988;52.614;13.500;2023-08-12T17:42:07;53480.38;;;-143.77;58.36
13836;BME280;6988;52.614;13.500;2023-08-12T17:46:59;53482.44;;;-143.77;58.71
13836;BME280;6988;52.614;13.500;2023-08-12T17:51:52;53509.09;;;-143.77;59.13
13836;BME280;6988;52.614;13.500;2023-08-12T17:56:44;53488.59;;;-143.77;58.78
13836;BME280;6988;52.614;13.500;2023-08-12T18:01:36;53502.97;;;-143.77;59.49
13836;BME280;6988;52.614;13.500;2023-08-12T18:06:28;53486.53;;;-143.77;59.78
13836;BME280;6988;52.614;13.500;2023-08-12T18:11:21;53507.06;;;-143.77;59.27
13836;BME280;6988;52.614;13.500;2023-08-12T18:16:13;53515.25;;;-143.77;59.27
13836;BME280;6988;52.614;13.500;2023-08-12T18:21:05;53525.53;;;-143.77;59.21
13836;BME280;6988;52.614;13.500;2023-08-12T18:25:57;53527.56;;;-143.77;59.05
13836;BME280;6988;52.614;13.500;2023-08-12T18:30:50;53543.97;;;-143.77;59.27
13836;BME280;6988;52.614;13.500;2023-08-12T18:35:41;53496.81;;;-143.77;60.01
13836;BME280;6988;52.614;13.500;2023-08-12T18:40:33;53490.66;;;-143.77;59.89
13836;BME280;6988;52.614;13.500;2023-08-12T18:45:25;53603.47;;;-143.77;60.12
13836;BME280;6988;52.614;13.500;2023-08-12T18:50:18;53525.53;;;-143.77;60.77
13836;BME280;6988;52.614;13.500;2023-08-12T18:55:10;53543.97;;;-143.77;61.19
13836;BME280;6988;52.614;13.500;2023-08-12T19:00:04;53580.91;;;-143.77;64.34
13836;BME280;6988;52.614;13.500;2023-08-12T19:04:56;53589.13;;;-143.77;65.04
13836;BME280;6988;52.614;13.500;2023-08-12T19:09:50;53634.25;;;-143.77;66.50
13836;BME280;6988;52.614;13.500;2023-08-12T19:14:42;53615.78;;;-143.77;67.27
13836;BME280;6988;52.614;13.500;2023-08-12T19:19:35;53619.88;;;-143.77;67.94
13836;BME280;6988;52.614;13.500;2023-08-12T19:24:26;53642.47;;;-143.77;68.64
13836;BME280;6988;52.614;13.500;2023-08-12T19:29:20;53662.97;;;-143.77;69.09
13836;BME280;6988;52.614;13.500;2023-08-12T19:34:11;53673.22;;;-143.77;69.45
13836;BME280;6988;52.614;13.500;2023-08-12T19:39:04;53654.75;;;-143.77;70.02
13836;BME280;6988;52.614;13.500;2023-08-12T19:43:56;53691.69;;;-143.77;69.86
13836;BME280;6988;52.614;13.500;2023-08-12T19:48:50;53673.22;;;-143.77;70.02
13836;BME280;6988;52.614;13.500;2023-08-12T19:53:42;53671.19;;;-143.77;70.46
13836;BME280;6988;52.614;13.500;2023-08-12T19:58:34;53695.78;;;-143.77;70.45
13836;BME280;6988;52.614;13.500;2023-08-12T20:03:26;53669.13;;;-143.77;70.65
13836;BME280;6988;52.614;13.500;2023-08-12T20:08:19;53701.94;;;-143.77;71.55
13836;BME280;6988;52.614;13.500;2023-08-12T20:13:11;53679.38;;;-143.77;72.23
13836;BME280;6988;52.614;13.500;2023-08-12T20:18:04;53689.63;;;-143.77;72.70
13836;BME280;6988;52.614;13.500;2023-08-12T20:22:55;53704.00;;;-143.77;72.24
13836;BME280;6988;52.614;13.500;2023-08-12T20:27:48;53710.16;;;-143.77;71.93
13836;BME280;6988;52.614;13.500;2023-08-12T20:32:40;53683.50;;;-143.77;72.04
13836;BME280;6988;52.614;13.500;2023-08-12T20:37:33;53699.91;;;-143.77;72.39
13836;BME280;6988;52.614;13.500;2023-08-12T20:42:25;53730.66;;;-143.77;73.04
13836;BME280;6988;52.614;13.500;2023-08-12T20:47:18;53710.16;;;-143.77;72.83
13836;BME280;6988;52.614;13.500;2023-08-12T20:52:10;53722.47;;;-143.77;73.23
13836;BME280;6988;52.614;13.500;2023-08-12T20:57:02;53775.81;;;-143.77;73.37
13836;BME280;6988;52.614;13.500;2023-08-12T21:01:53;53716.31;;;-143.77;74.25
13836;BME280;6988;52.614;13.500;2023-08-12T21:06:47;53736.81;;;-143.77;74.42
13836;BME280;6988;52.614;13.500;2023-08-12T21:11:39;53738.88;;;-143.77;74.82
13836;BME280;6988;52.614;13.500;2023-08-12T21:16:31;53710.16;;;-143.77;75.59
13836;BME280;6988;52.614;13.500;2023-08-12T21:21:23;53784.00;;;-143.77;76.10
13836;BME280;6988;52.614;13.500;2023-08-12T21:26:16;53757.34;;;-143.77;76.08
13836;BME280;6988;52.614;13.500;2023-08-12T21:31:07;53740.94;;;-143.77;76.42
13836;BME280;6988;52.614;13.500;2023-08-12T21:36:01;53761.44;;;-143.77;76.58
13836;BME280;6988;52.614;13.500;2023-08-12T21:40:53;53773.75;;;-143.77;76.75
13836;BME280;6988;52.614;13.500;2023-08-12T22:04:31;53788.13;;;-143.77;77.97
13836;BME280;6988;52.614;13.500;2023-08-12T22:09:23;53806.56;;;-143.77;79.25
13836;BME280;6988;52.614;13.500;2023-08-12T22:14:15;53814.78;;;-143.77;79.82
13836;BME280;6988;52.614;13.500;2023-08-12T22:19:07;53814.78;;;-143.77;79.57
13836;BME280;6988;52.614;13.500;2023-08-12T22:24:00;53806.56;;;-143.77;79.55
13836;BME280;6988;52.614;13.500;2023-08-12T22:28:52;53835.31;;;-143.77;80.04
13836;BME280;6988;52.614;13.500;2023-08-12T22:33:44;53851.72;;;-143.77;79.60
13836;BME280;6988;52.614;13.500;2023-08-12T22:38:36;53861.97;;;-143.77;79.80
13836;BME280;6988;52.614;13.500;2023-08-12T22:43:29;53818.88;;;-143.77;80.19
13836;BME280;6988;52.614;13.500;2023-08-12T22:48:21;53847.59;;;-143.77;80.14
13836;BME280;6988;52.614;13.500;2023-08-12T22:53:14;53831.19;;;-143.77;79.93
13836;BME280;6988;52.614;13.500;2023-08-12T22:58:06;53829.16;;;-143.77;80.20
13836;BME280;6988;52.614;13.500;2023-08-12T23:02:59;53802.47;;;-143.77;80.08
13836;BME280;6988;52.614;13.500;2023-08-12T23:07:51;53818.88;;;-143.77;80.53
13836;BME280;6988;52.614;13.500;2023-08-12T23:12:43;53859.91;;;-143.77;80.69
13836;BME280;6988;52.614;13.500;2023-08-12T23:17:35;53847.59;;;-143.77;80.88
13836;BME280;6988;52.614;13.500;2023-08-12T23:22:28;53818.88;;;-143.77;80.87
13836;BME280;6988;52.614;13.500;2023-08-12T23:27:20;53855.81;;;-143.77;81.11
13836;BME280;6988;52.614;13.500;2023-08-12T23:32:12;53833.25;;;-143.77;81.76
13836;BME280;6988;52.614;13.500;2023-08-12T23:37:04;53861.97;;;-143.77;82.01
13836;BME280;6988;52.614;13.500;2023-08-12T23:41:58;53851.72;;;-143.77;82.27
13836;BME280;6988;52.614;13.500;2023-08-12T23:46:49;53868.13;;;-143.77;82.29
13836;BME280;6988;52.614;13.500;2023-08-12T23:51:41;53847.59;;;-143.77;83.19
13836;BME280;6988;52.614;13.500;2023-08-12T23:56:34;53866.06;;;-143.77;82.76
